GFLL

Lungi International Airport

Freetown, Sierra Leone
METAR GFLL 181300Z 29011KT 9999 BKN012 FEW027CB 30/23 Q1012 RMK -CB-NE
Observed Flight Rules
Aug-18 @ 13:00 UTC (2 hours ago) Marginal Visual Flight Rules
Wind Visibility Clouds
290° at 11 knots 10,000+ meters
  • Broken at 1,200' AGL
  • Few at 2,700' AGL
Temperatures Readings
Current 30°C / 86°F
Dewpoint 23°C / 73°F
Humidity 66%
Altimeter 29.88" Hg
Pressure 1012 hPa
Elevation 27
METAR GFLL 181300Z 29011KT 9999 BKN012 FEW027CB 30/23 Q1012 RMK -CB-NE
Observed Flight Rules
Aug-18 @ 13:00 UTC
(2 hours ago)
MVFR
Wind Visibility
290° at 11 knots 10,000+ meters
Clouds
  • Broken at 1,200' AGL
  • Few at 2,700' AGL
Temperature Dewpoint
30°C / 86°F 23°C / 73°F
Humidity Altimeter Pressure
66% 29.88" Hg 1012 hPa